Time;durP1;ratioP1;P1;durP2;ratioP2;P2;SDS_P1;SDS_P2;PMS_P1;PMS_P2;Temp;Humidity;BMP_temperature;BMP_pressure;BME280_temperature;BME280_humidity;BME280_pressure;Samples;Min_cycle;Max_cycle;Signal;HPM_P1;HPM_P2
2022/06/25 00:01:25;;;;;;;5.00;2.97;;;;;;;20.70;47.51;100361.86;1675508;84;21571;-81
2022/06/25 00:03:52;;;;;;;2.90;2.62;;;;;;;20.72;47.64;100361.29;1659794;84;21475;-82
2022/06/25 00:06:24;;;;;;;3.60;2.35;;;;;;;20.74;47.68;100361.20;1656755;84;21037;-82
2022/06/25 00:08:50;;;;;;;5.20;2.22;;;;;;;20.75;47.79;100362.41;1711674;83;21039;-81
2022/06/25 00:14:10;;;;;;;11.93;2.83;;;;;;;20.77;47.84;100363.63;1693993;84;21063;-81
2022/06/25 00:16:39;;;;;;;4.15;2.70;;;;;;;20.79;47.96;100367.02;1694303;84;21110;-81
2022/06/25 00:19:05;;;;;;;13.07;3.23;;;;;;;20.81;48.14;100361.16;1693991;83;21544;-81
2022/06/25 00:21:32;;;;;;;4.45;2.75;;;;;;;20.79;48.19;100364.38;1699689;83;21346;-81
2022/06/25 00:23:59;;;;;;;2.87;2.52;;;;;;;20.78;48.36;100360.91;1698234;83;21074;-81
2022/06/25 00:26:28;;;;;;;5.08;3.10;;;;;;;20.78;48.33;100362.23;1706179;83;21055;-81
2022/06/25 00:28:54;;;;;;;3.37;3.07;;;;;;;20.79;48.54;100364.38;1706123;82;21480;-82
2022/06/25 00:31:21;;;;;;;3.47;3.17;;;;;;;20.77;48.57;100363.16;1699522;83;21052;-82
2022/06/25 00:33:47;;;;;;;8.17;4.30;;;;;;;20.75;48.75;100370.30;1715079;82;21034;-81
2022/06/25 00:36:14;;;;;;;7.77;5.13;;;;;;;20.75;48.75;100370.30;1721220;82;21008;-81
2022/06/25 00:38:44;;;;;;;25.08;12.00;;;;;;;20.77;48.70;100371.05;1696523;83;21481;-82
2022/06/25 00:41:12;;;;;;;15.40;8.93;;;;;;;20.78;48.79;100373.20;1696098;84;21124;-82
2022/06/25 00:43:40;;;;;;;12.28;7.75;;;;;;;20.75;49.00;100371.61;1694780;83;21145;-82
2022/06/25 00:46:06;;;;;;;14.20;8.28;;;;;;;20.70;48.99;100374.15;1697786;83;21047;-82
2022/06/25 00:48:32;;;;;;;4.05;3.62;;;;;;;20.68;49.44;100382.13;1693529;83;21072;-82
2022/06/25 00:50:59;;;;;;;3.12;2.92;;;;;;;20.66;49.21;100377.91;1690722;84;21026;-82
2022/06/25 00:53:30;;;;;;;2.98;2.60;;;;;;;20.66;49.27;100376.59;1693993;83;21127;-82
2022/06/25 00:56:00;;;;;;;3.85;3.35;;;;;;;20.56;49.38;100369.73;1693546;84;21068;-82
2022/06/25 00:58:32;;;;;;;5.30;2.60;;;;;;;20.64;49.33;100379.31;1695217;83;21056;-82
2022/06/25 01:01:00;;;;;;;3.20;2.90;;;;;;;20.64;49.45;100383.72;1698664;83;20953;-82
2022/06/25 01:03:28;;;;;;;3.17;2.77;;;;;;;20.64;49.61;100387.19;1696230;83;20943;-82
2022/06/25 01:05:54;;;;;;;5.83;2.62;;;;;;;20.63;49.56;100385.50;1692588;83;20972;-81
2022/06/25 01:08:22;;;;;;;7.03;2.80;;;;;;;20.62;49.71;100383.81;1706110;82;21429;-81
2022/06/25 01:10:54;;;;;;;3.75;2.77;;;;;;;20.60;49.81;100384.38;1710299;82;21600;-81
2022/06/25 01:13:22;;;;;;;5.37;3.07;;;;;;;20.60;49.90;100386.16;1679296;84;20930;-81
2022/06/25 01:15:49;;;;;;;3.22;2.87;;;;;;;20.57;50.05;100380.63;1663155;84;20986;-81
2022/06/25 01:18:19;;;;;;;5.22;3.10;;;;;;;20.56;50.12;100385.97;1680813;84;20930;-81
2022/06/25 01:20:45;;;;;;;4.57;3.10;;;;;;;20.57;50.12;100389.81;1672158;85;20906;-81
2022/06/25 01:23:12;;;;;;;3.17;2.87;;;;;;;20.57;50.07;100384.56;1671213;84;21020;-81
2022/06/25 01:25:40;;;;;;;4.80;3.00;;;;;;;20.60;50.13;100384.84;1679693;84;20911;-81
2022/06/25 01:28:08;;;;;;;8.28;3.33;;;;;;;20.60;50.21;100388.31;1679633;84;20975;-81
2022/06/25 01:30:35;;;;;;;7.70;2.90;;;;;;;20.61;50.35;100390.47;1674337;84;21457;-82
2022/06/25 01:33:01;;;;;;;12.13;3.50;;;;;;;20.60;50.30;100396.67;1671904;84;21060;-82
2022/06/25 01:35:27;;;;;;;6.13;3.07;;;;;;;20.60;50.35;100399.30;1673523;84;21071;-82
2022/06/25 01:37:55;;;;;;;3.50;3.20;;;;;;;20.56;50.42;100397.80;1691454;83;21763;-82
2022/06/25 01:40:21;;;;;;;4.97;3.10;;;;;;;20.57;50.50;100397.70;1707201;83;21163;-82
2022/06/25 01:42:59;;;;;;;5.05;3.17;;;;;;;20.59;50.53;100393.66;1678070;83;21080;-81
2022/06/25 01:45:34;;;;;;;3.58;3.25;;;;;;;20.58;50.57;100394.60;1683708;83;21061;-81
2022/06/25 01:48:06;;;;;;;5.55;3.25;;;;;;;20.60;50.61;100391.41;1697360;83;21026;-81
2022/06/25 01:50:34;;;;;;;4.53;2.92;;;;;;;20.60;50.70;100397.52;1669351;84;21068;-82
2022/06/25 01:53:00;;;;;;;5.85;3.30;;;;;;;20.57;50.70;100390.28;1670749;85;21085;-82
2022/06/25 01:55:27;;;;;;;3.58;3.27;;;;;;;20.57;50.75;100385.03;1664688;85;20992;-82
2022/06/25 01:57:53;;;;;;;5.13;3.27;;;;;;;20.56;50.80;100389.44;1693413;83;21079;-82
2022/06/25 02:00:26;;;;;;;3.85;3.12;;;;;;;20.57;50.88;100392.91;1700056;83;21069;-82
2022/06/25 02:02:53;;;;;;;5.45;3.92;;;;;;;20.55;50.91;100396.10;1676197;83;20969;-82
2022/06/25 02:08:10;;;;;;;5.55;3.60;;;;;;;20.49;51.04;100402.57;1670612;84;21136;-81
2022/06/25 02:10:37;;;;;;;7.65;5.35;;;;;;;20.44;51.08;100404.62;1672152;84;21454;-81
2022/06/25 02:13:03;;;;;;;4.28;3.98;;;;;;;20.38;51.15;100407.63;1687672;83;26700;-81
2022/06/25 02:15:30;;;;;;;7.33;5.72;;;;;;;20.33;51.22;100407.02;1650043;86;21071;-81
2022/06/25 02:17:56;;;;;;;7.53;5.23;;;;;;;20.22;51.30;100405.06;1675964;85;21065;-81
2022/06/25 02:20:22;;;;;;;6.60;5.53;;;;;;;20.16;51.43;100401.02;1651644;85;20957;-81
2022/06/25 02:22:50;;;;;;;6.22;4.72;;;;;;;20.11;51.47;100402.22;1681948;84;21093;-81
2022/06/25 02:25:17;;;;;;;8.90;5.97;;;;;;;20.07;51.59;100405.96;1685429;85;21061;-81
2022/06/25 02:27:43;;;;;;;10.88;4.92;;;;;;;20.00;51.62;100395.44;1675237;84;21076;-81
2022/06/25 02:30:10;;;;;;;8.68;5.50;;;;;;;19.93;51.78;100394.95;1666115;86;21009;-81
2022/06/25 02:32:36;;;;;;;5.40;3.90;;;;;;;19.90;51.82;100399.53;1665354;84;21020;-81
2022/06/25 02:35:04;;;;;;;4.67;4.20;;;;;;;19.83;51.94;100406.45;1665535;84;21117;-81
2022/06/25 02:37:29;;;;;;;;;;;;;;;19.76;52.00;100403.79;1670808;84;21125;-81
2022/06/25 02:39:55;;;;;;;4.12;3.72;;;;;;;19.68;52.43;100403.88;1673948;84;20258;-81
2022/06/25 02:42:21;;;;;;;4.10;3.43;;;;;;;19.61;52.09;100403.38;1679761;85;21089;-81
2022/06/25 02:44:48;;;;;;;6.53;3.30;;;;;;;19.58;52.22;100400.94;1679944;83;21138;-81
2022/06/25 02:47:15;;;;;;;4.75;3.80;;;;;;;19.53;52.28;100393.79;1678329;84;21109;-80
2022/06/25 02:49:41;;;;;;;5.03;4.00;;;;;;;19.48;52.39;100396.64;1677863;84;20905;-81
2022/06/25 02:52:08;;;;;;;3.95;3.30;;;;;;;19.46;52.51;100393.72;1665831;86;21072;-82
2022/06/25 02:54:34;;;;;;;5.37;3.42;;;;;;;19.47;52.56;100398.03;1668772;83;21132;-82
2022/06/25 02:59:45;;;;;;;6.08;3.20;;;;;;;19.48;52.69;100401.88;1665071;84;21332;-82
2022/06/25 03:02:11;;;;;;;5.20;3.30;;;;;;;19.46;52.74;100397.19;1674823;83;20930;-82
2022/06/25 03:04:37;;;;;;;4.53;3.30;;;;;;;19.44;52.80;100394.27;1697559;84;20996;-82
2022/06/25 03:07:04;;;;;;;4.00;3.53;;;;;;;19.41;52.88;100392.67;1656943;85;21263;-82
2022/06/25 03:09:30;;;;;;;6.97;3.42;;;;;;;19.41;52.93;100397.06;1664661;84;21073;-82
2022/06/25 03:11:56;;;;;;;7.20;3.93;;;;;;;19.39;53.01;100395.84;1679936;83;20963;-81
2022/06/25 03:14:25;;;;;;;3.40;3.15;;;;;;;19.42;53.08;100401.38;1688484;84;21004;-82
2022/06/25 03:16:51;;;;;;;3.50;3.20;;;;;;;19.45;53.15;100402.52;1643796;85;21151;-82
2022/06/25 03:19:17;;;;;;;4.83;3.10;;;;;;;19.44;53.22;100401.67;1672941;83;21317;-81
2022/06/25 03:21:45;;;;;;;5.03;3.17;;;;;;;19.47;53.29;100403.28;1691786;83;20912;-81
2022/06/25 03:24:11;;;;;;;3.95;3.02;;;;;;;19.47;53.35;100408.52;1679301;83;21101;-81
2022/06/25 03:26:38;;;;;;;6.67;3.72;;;;;;;19.51;53.43;100407.45;1688273;84;21267;-81
2022/06/25 03:29:04;;;;;;;4.10;3.42;;;;;;;19.54;53.47;100404.66;1659463;85;21082;-81
2022/06/25 03:31:31;;;;;;;5.73;3.50;;;;;;;19.56;53.58;100405.42;1647825;86;21091;-81
2022/06/25 03:33:57;;;;;;;3.60;3.30;;;;;;;19.58;53.54;100410.11;1695488;83;21030;-81
2022/06/25 03:36:23;;;;;;;5.78;3.20;;;;;;;19.59;53.68;100402.63;1688217;82;21108;-82
2022/06/25 03:38:49;;;;;;;6.43;3.53;;;;;;;19.62;53.79;100403.77;1668646;83;21425;-82
2022/06/25 03:41:32;;;;;;;5.35;3.85;;;;;;;19.64;53.73;100403.21;1689930;83;21514;-81
2022/06/25 03:44:00;;;;;;;6.85;3.90;;;;;;;19.64;53.80;100400.59;1664370;84;21125;-81
2022/06/25 03:46:29;;;;;;;6.05;3.58;;;;;;;19.65;53.90;100404.05;1706345;83;21495;-81
2022/06/25 03:48:55;;;;;;;6.12;4.33;;;;;;;19.68;53.91;100406.04;1657961;86;21123;-81
2022/06/25 03:51:21;;;;;;;6.75;3.22;;;;;;;19.72;53.92;100407.55;1648529;85;21003;-81
2022/06/25 03:53:48;;;;;;;4.17;3.77;;;;;;;19.73;53.99;100405.31;1668830;85;21068;-81
2022/06/25 03:56:14;;;;;;;4.60;2.85;;;;;;;19.75;54.00;100408.69;1670337;84;21069;-81
2022/06/25 03:58:40;;;;;;;4.50;3.13;;;;;;;19.75;54.11;100411.31;1673973;85;21001;-81
2022/06/25 04:01:06;;;;;;;3.33;3.02;;;;;;;19.78;54.10;100411.58;1666316;84;21567;-81
2022/06/25 04:03:33;;;;;;;3.52;3.22;;;;;;;19.80;54.29;100414.49;1713829;83;21002;-81
2022/06/25 04:05:58;;;;;;;3.50;3.20;;;;;;;19.82;54.32;100415.25;1691285;83;21526;-81
2022/06/25 04:08:25;;;;;;;3.40;3.10;;;;;;;19.87;54.33;100412.83;1672635;84;21196;-81
2022/06/25 04:10:51;;;;;;;6.73;3.50;;;;;;;19.96;54.39;100407.05;1670742;84;21083;-81
2022/06/25 04:13:19;;;;;;;5.95;3.25;;;;;;;20.12;54.39;100413.09;1687885;83;21030;-81
2022/06/25 04:15:45;;;;;;;3.50;3.20;;;;;;;20.33;54.39;100418.37;1697789;83;21088;-81
2022/06/25 04:18:12;;;;;;;4.70;3.55;;;;;;;20.51;54.37;100415.61;1717906;82;20938;-81
2022/06/25 04:20:38;;;;;;;5.30;3.10;;;;;;;20.63;54.32;100418.81;1725164;82;20974;-81
2022/06/25 04:23:05;;;;;;;7.97;3.42;;;;;;;20.68;54.30;100417.59;1711224;82;26614;-82
2022/06/25 04:25:31;;;;;;;4.27;3.40;;;;;;;20.71;54.36;100423.98;1710968;82;21460;-82
2022/06/25 04:30:43;;;;;;;3.92;3.27;;;;;;;20.95;54.21;100443.95;1715893;82;21360;-82
2022/06/25 04:33:09;;;;;;;6.28;3.30;;;;;;;20.95;54.21;100443.95;1720085;82;20917;-82
2022/06/25 04:35:36;;;;;;;3.50;3.20;;;;;;;20.96;54.28;100440.37;1699896;84;21505;-82
2022/06/25 04:38:02;;;;;;;6.95;3.40;;;;;;;21.00;54.29;100444.50;1717930;82;21419;-82
2022/06/25 04:40:29;;;;;;;4.53;3.42;;;;;;;21.04;54.30;100442.53;1707016;82;26597;-82
2022/06/25 04:42:55;;;;;;;4.00;3.70;;;;;;;21.06;54.32;100452.02;1715173;81;21528;-82
2022/06/25 04:45:21;;;;;;;6.00;3.98;;;;;;;21.15;54.39;100458.02;1715763;82;21487;-82
2022/06/25 04:47:49;;;;;;;11.43;3.95;;;;;;;21.25;54.35;100460.95;1711193;82;21371;-81
2022/06/25 04:50:15;;;;;;;5.00;3.20;;;;;;;21.36;54.36;100458.94;1705309;83;20864;-82
2022/06/25 04:52:40;;;;;;;6.23;3.40;;;;;;;21.47;54.35;100461.73;1715711;83;21002;-82
2022/06/25 04:55:15;;;;;;;4.20;3.65;;;;;;;21.51;54.21;100454.02;1684471;84;21408;-82
2022/06/25 04:57:41;;;;;;;4.47;3.50;;;;;;;21.62;54.27;100451.55;1719043;82;21537;-82
2022/06/25 05:00:11;;;;;;;12.97;3.50;;;;;;;21.81;54.26;100449.88;1734194;82;21399;-81
2022/06/25 05:02:40;;;;;;;8.30;3.95;;;;;;;21.97;54.25;100460.23;1704458;82;21829;-81
2022/06/25 05:05:07;;;;;;;8.80;3.27;;;;;;;22.26;54.21;100461.81;1676611;84;21556;-81
2022/06/25 05:07:33;;;;;;;4.83;3.40;;;;;;;22.64;54.15;100471.05;1715513;82;21070;-81
2022/06/25 05:10:03;;;;;;;4.22;3.42;;;;;;;23.11;54.11;100477.00;1709914;82;21536;-82
2022/06/25 05:15:15;;;;;;;3.25;2.98;;;;;;;23.96;53.43;100470.42;1656324;84;20621;-82
2022/06/25 05:17:41;;;;;;;3.55;3.00;;;;;;;24.43;53.56;100472.19;1702226;82;21667;-82
2022/06/25 05:20:09;;;;;;;11.03;4.00;;;;;;;24.77;53.19;100468.25;1691124;83;21446;-82
2022/06/25 05:22:35;;;;;;;8.13;3.30;;;;;;;25.10;53.31;100474.89;1695988;83;21021;-82
2022/06/25 05:25:01;;;;;;;5.60;3.73;;;;;;;25.56;53.06;100478.66;1687980;83;20919;-82
2022/06/25 05:27:27;;;;;;;4.20;3.63;;;;;;;26.01;52.85;100471.91;1695804;83;21002;-82
2022/06/25 05:29:54;;;;;;;9.13;3.27;;;;;;;26.34;52.11;100481.55;1683983;83;21128;-83
2022/06/25 05:32:20;;;;;;;5.83;2.95;;;;;;;26.50;52.12;100486.41;1692907;83;21604;-83
2022/06/25 05:34:48;;;;;;;5.25;3.17;;;;;;;26.77;51.96;100482.70;1695209;83;21611;-83
2022/06/25 05:37:15;;;;;;;4.83;3.27;;;;;;;27.04;51.63;100484.30;1683515;83;21093;-82
2022/06/25 05:39:42;;;;;;;5.47;3.25;;;;;;;27.24;51.27;100490.53;1691473;83;21589;-82
2022/06/25 05:42:16;;;;;;;3.95;3.05;;;;;;;27.47;51.25;100484.52;1690592;83;21057;-82
2022/06/25 05:44:43;;;;;;;5.62;2.95;;;;;;;27.74;50.43;100484.37;1684444;83;21005;-83
2022/06/25 05:47:10;;;;;;;3.40;3.10;;;;;;;27.92;50.68;100482.22;1685618;83;21108;-83
2022/06/25 05:49:36;;;;;;;3.47;3.17;;;;;;;28.25;50.43;100491.59;1685478;83;21096;-82
2022/06/25 05:52:02;;;;;;;3.77;2.80;;;;;;;28.37;49.59;100482.14;1671914;83;21603;-82
2022/06/25 05:54:29;;;;;;;3.35;2.90;;;;;;;28.37;49.36;100480.81;1687201;83;21699;-82
2022/06/25 05:56:55;;;;;;;6.47;2.98;;;;;;;28.56;49.59;100480.78;1691795;83;21488;-82
2022/06/25 05:59:20;;;;;;;9.97;3.20;;;;;;;28.82;49.42;100483.17;1687410;83;20890;-82
2022/06/25 06:01:47;;;;;;;3.35;2.92;;;;;;;29.02;48.27;100485.27;1699670;83;21153;-82
2022/06/25 06:04:15;;;;;;;3.45;3.15;;;;;;;28.99;48.48;100487.73;1694720;82;21058;-82
2022/06/25 06:06:41;;;;;;;4.28;3.15;;;;;;;29.16;48.23;100497.23;1689463;83;21719;-82
2022/06/25 06:09:07;;;;;;;6.03;2.65;;;;;;;29.51;48.22;100492.53;1678367;83;21077;-82
2022/06/25 06:11:33;;;;;;;3.80;3.37;;;;;;;29.82;47.91;100504.52;1687765;83;21493;-82
2022/06/25 06:13:59;;;;;;;4.40;2.95;;;;;;;30.25;47.52;100499.75;1694015;83;21568;-82
2022/06/25 06:16:25;;;;;;;5.60;3.00;;;;;;;30.86;47.24;100515.37;1703327;82;21041;-82
2022/06/25 06:18:52;;;;;;;4.25;3.02;;;;;;;31.40;46.83;100519.49;1697305;82;20978;-82
2022/06/25 06:21:19;;;;;;;4.83;3.33;;;;;;;32.07;46.32;100518.16;1700277;82;21115;-82
2022/06/25 06:23:45;;;;;;;4.00;3.27;;;;;;;32.67;45.70;100519.99;1699421;82;21057;-82
2022/06/25 06:26:11;;;;;;;3.33;3.00;;;;;;;33.23;45.06;100523.03;1680941;83;21679;-81
2022/06/25 06:28:37;;;;;;;3.85;3.42;;;;;;;33.43;43.68;100526.64;1713134;82;21629;-79
2022/06/25 06:31:03;;;;;;;4.97;2.92;;;;;;;33.53;44.01;100528.09;1721216;81;21060;-79
2022/06/25 06:33:29;;;;;;;4.30;2.95;;;;;;;33.91;43.84;100524.70;1719491;82;20963;-79
2022/06/25 06:35:55;;;;;;;3.00;2.80;;;;;;;34.26;42.92;100524.11;1718953;82;20965;-79
2022/06/25 06:38:21;;;;;;;3.87;3.27;;;;;;;34.57;42.40;100526.69;1710487;82;21763;-79
2022/06/25 06:40:47;;;;;;;4.78;2.85;;;;;;;34.75;42.14;100525.01;1716896;82;20871;-79
2022/06/25 06:43:13;;;;;;;6.37;3.00;;;;;;;35.09;42.02;100529.34;1683111;84;21092;-79
2022/06/25 06:45:41;;;;;;;3.47;2.90;;;;;;;35.56;41.52;100528.59;1703542;82;21115;-79
2022/06/25 06:48:08;;;;;;;6.75;3.05;;;;;;;35.59;40.63;100529.56;1702481;82;21141;-79
2022/06/25 06:50:34;;;;;;;9.33;2.83;;;;;;;35.78;40.47;100529.82;1709377;82;20996;-79
2022/06/25 06:53:00;;;;;;;3.75;3.42;;;;;;;36.24;40.22;100533.46;1714022;82;21138;-79
2022/06/25 06:55:26;;;;;;;5.22;2.90;;;;;;;36.18;38.61;100528.84;1714324;82;21106;-79
2022/06/25 06:57:52;;;;;;;9.15;3.35;;;;;;;35.94;38.92;100526.02;1712089;82;21747;-79
2022/06/25 07:00:19;;;;;;;6.42;3.25;;;;;;;36.36;39.01;100526.56;1706051;82;21049;-79
2022/06/25 07:02:45;;;;;;;5.42;3.45;;;;;;;36.79;38.30;100524.61;1726014;80;21064;-79
2022/06/25 07:05:11;;;;;;;7.78;3.40;;;;;;;36.78;37.73;100529.68;1697678;83;21084;-79
2022/06/25 07:07:37;;;;;;;3.00;2.72;;;;;;;36.95;37.33;100525.30;1712390;82;21053;-79
2022/06/25 07:10:05;;;;;;;3.30;3.02;;;;;;;37.27;37.12;100523.33;1707313;82;21093;-79
2022/06/25 07:12:31;;;;;;;5.15;3.17;;;;;;;37.64;36.78;100534.12;1700178;82;21125;-79
2022/06/25 07:14:57;;;;;;;;;;;;;;;37.97;36.21;100532.86;1666315;85;21527;-79
2022/06/25 07:17:23;;;;;;;3.30;2.98;;;;;;;38.19;33.91;100533.55;1644306;85;20241;-79
2022/06/25 07:19:49;;;;;;;;;;;;;;;38.12;35.53;100536.73;1693199;82;21316;-79
2022/06/25 07:22:16;;;;;;;5.62;2.83;;;;;;;37.83;35.23;100536.60;1648813;84;20479;-79
2022/06/25 07:24:42;;;;;;;3.80;2.67;;;;;;;37.68;34.93;100533.23;1668076;83;21144;-79
2022/06/25 07:27:08;;;;;;;7.83;3.58;;;;;;;37.90;34.74;100538.80;1646013;84;26738;-79
2022/06/25 07:29:34;;;;;;;;;;;;;;;38.20;34.18;100538.44;1652612;86;21529;-79
2022/06/25 07:32:00;;;;;;;3.17;2.87;;;;;;;38.18;34.09;100531.89;1650163;85;20137;-79
2022/06/25 07:34:26;;;;;;;3.98;3.27;;;;;;;38.54;33.84;100531.44;1650296;85;21056;-79
2022/06/25 07:36:52;;;;;;;;;;;;;;;38.85;33.23;100529.45;1655116;85;22697;-79
2022/06/25 07:39:18;;;;;;;6.35;2.95;;;;;;;38.70;33.18;100537.80;1650669;85;20297;-79
2022/06/25 07:41:44;;;;;;;;;;;;;;;38.41;33.00;100540.41;1655741;83;21477;-79
2022/06/25 07:44:12;;;;;;;3.40;3.10;;;;;;;37.76;32.31;100539.28;1663504;84;20343;-78
2022/06/25 07:46:39;;;;;;;3.67;3.10;;;;;;;37.12;32.61;100536.91;1659686;84;21124;-79
2022/06/25 07:49:07;;;;;;;3.52;3.22;;;;;;;36.73;32.37;100536.14;1657441;84;21092;-79
2022/06/25 07:54:18;;;;;;;6.95;3.20;;;;;;;36.19;32.40;100535.90;1646430;84;20990;-80
2022/06/25 07:56:46;;;;;;;3.77;3.30;;;;;;;35.93;32.05;100537.81;1654375;84;20950;-80
2022/06/25 07:59:13;;;;;;;9.73;4.22;;;;;;;35.60;31.90;100541.48;1652935;84;21074;-80
2022/06/25 08:01:39;;;;;;;3.50;2.92;;;;;;;35.19;31.97;100543.84;1634264;84;21016;-81
2022/06/25 08:04:09;;;;;;;6.30;3.62;;;;;;;34.78;31.89;100538.08;1651784;84;21173;-81
2022/06/25 08:06:38;;;;;;;4.28;3.30;;;;;;;34.69;31.89;100535.98;1654417;84;21416;-81
2022/06/25 08:09:03;;;;;;;3.22;2.92;;;;;;;34.81;31.85;100538.58;1655342;84;21113;-81
2022/06/25 08:11:29;;;;;;;;;;;;;;;34.78;31.61;100535.39;1657595;84;21113;-81
2022/06/25 08:13:55;;;;;;;5.17;3.37;;;;;;;34.89;31.50;100534.10;1649676;84;20294;-81
2022/06/25 08:16:25;;;;;;;3.95;2.72;;;;;;;35.00;31.62;100534.98;1656950;84;21038;-82
2022/06/25 08:18:52;;;;;;;4.33;3.35;;;;;;;34.90;31.44;100522.34;1651537;84;21091;-82
2022/06/25 08:21:19;;;;;;;7.90;3.50;;;;;;;34.98;31.65;100530.31;1653158;84;21131;-81
2022/06/25 08:23:51;;;;;;;4.55;3.17;;;;;;;34.98;31.46;100531.66;1660143;84;21101;-81
2022/06/25 08:26:17;;;;;;;3.30;3.00;;;;;;;35.10;31.49;100532.86;1649464;84;21125;-81
2022/06/25 08:28:44;;;;;;;6.12;3.42;;;;;;;35.14;31.36;100543.05;1664837;84;21079;-81
2022/06/25 08:31:12;;;;;;;3.67;3.37;;;;;;;35.01;31.01;100545.55;1663165;84;21099;-81
2022/06/25 08:33:38;;;;;;;5.35;3.05;;;;;;;34.83;31.34;100541.87;1661997;83;21686;-81
2022/06/25 08:36:05;;;;;;;4.35;3.02;;;;;;;34.95;31.39;100539.58;1662238;84;21170;-79
2022/06/25 08:38:31;;;;;;;;;;;;;;;35.06;31.09;100538.28;1672841;84;21087;-82
2022/06/25 08:40:59;;;;;;;;;;;;;;;35.00;31.24;100539.02;1669771;83;20260;-82
2022/06/25 08:43:25;;;;;;;6.00;3.22;;;;;;;35.12;30.96;100539.72;1666681;84;20252;-82
2022/06/25 08:45:53;;;;;;;3.62;3.30;;;;;;;35.16;31.20;100538.84;1698031;83;21123;-82
2022/06/25 08:48:24;;;;;;;3.45;2.70;;;;;;;35.37;31.11;100540.77;1667994;84;21140;-81
2022/06/25 08:50:51;;;;;;;3.85;2.80;;;;;;;35.21;30.91;100540.46;1702645;83;21090;-81
2022/06/25 08:53:18;;;;;;;5.03;2.83;;;;;;;35.15;30.99;100531.28;1684328;83;21022;-81
2022/06/25 08:55:46;;;;;;;4.03;3.10;;;;;;;35.37;31.10;100538.92;1677936;82;21143;-82
2022/06/25 08:58:13;;;;;;;3.33;3.02;;;;;;;35.47;30.90;100537.28;1701831;83;22061;-82
2022/06/25 09:00:44;;;;;;;5.15;3.42;;;;;;;35.34;30.80;100542.52;1678638;84;20942;-82
2022/06/25 09:03:10;;;;;;;5.70;3.17;;;;;;;35.26;30.79;100541.25;1668133;83;20962;-82
2022/06/25 09:05:40;;;;;;;;;;;;;;;35.23;30.66;100538.93;1673374;84;20965;-82
2022/06/25 09:08:11;;;;;;;6.35;3.42;;;;;;;34.96;30.63;100537.22;1669689;84;49939;-82
2022/06/25 09:10:40;;;;;;;6.37;3.10;;;;;;;34.96;30.49;100542.59;1701478;83;20856;-82
2022/06/25 09:13:10;;;;;;;5.05;3.40;;;;;;;34.58;30.80;100535.58;1666310;84;20919;-83
2022/06/25 09:15:40;;;;;;;8.10;3.02;;;;;;;34.16;30.72;100533.74;1700092;83;20964;-83
2022/06/25 09:18:17;;;;;;;6.87;3.35;;;;;;;33.54;30.77;100531.61;1679623;83;20895;-83
2022/06/25 09:21:07;;;;;;;3.27;2.98;;;;;;;33.12;31.03;100530.10;1688100;84;20864;-83
2022/06/25 09:23:56;;;;;;;6.72;2.95;;;;;;;32.75;30.98;100533.41;1671841;84;20971;-83
2022/06/25 09:26:22;;;;;;;6.05;2.98;;;;;;;32.30;31.35;100525.87;1681219;84;20962;-83
2022/06/25 09:29:02;;;;;;;3.47;2.80;;;;;;;32.19;31.49;100531.05;1674391;84;21490;-83
2022/06/25 09:31:36;;;;;;;3.30;3.00;;;;;;;31.86;31.41;100515.95;1670876;83;20970;-83
2022/06/25 09:34:05;;;;;;;4.58;3.58;;;;;;;31.55;31.61;100517.03;1671473;83;21432;-83
2022/06/25 09:36:31;;;;;;;6.92;2.72;;;;;;;31.33;31.80;100529.65;1650390;85;20974;-83
2022/06/25 09:38:57;;;;;;;4.08;2.72;;;;;;;31.09;31.95;100525.86;1646274;85;20930;-83
2022/06/25 09:41:24;;;;;;;3.15;2.77;;;;;;;31.07;32.03;100524.34;1683771;83;20910;-83
2022/06/25 09:43:51;;;;;;;4.58;2.83;;;;;;;30.92;32.08;100522.26;1671380;84;20988;-83
2022/06/25 09:46:18;;;;;;;11.25;3.90;;;;;;;30.80;32.29;100524.02;1706114;83;20957;-83
2022/06/25 09:48:44;;;;;;;;;;;;;;;30.70;32.44;100523.28;1662580;84;21593;-83
2022/06/25 09:51:19;;;;;;;5.47;2.80;;;;;;;30.54;32.55;100525.33;1647353;84;20132;-83
2022/06/25 09:53:52;;;;;;;3.85;2.55;;;;;;;30.45;32.57;100526.26;1661194;84;20962;-83
2022/06/25 09:56:31;;;;;;;4.47;2.77;;;;;;;30.40;32.75;100523.22;1671110;84;20973;-83
2022/06/25 09:58:58;;;;;;;3.20;2.87;;;;;;;30.28;32.70;100526.13;1676085;85;20934;-83
2022/06/25 10:01:32;;;;;;;6.83;2.52;;;;;;;30.23;32.96;100533.74;1689696;83;20941;-83
2022/06/25 10:04:02;;;;;;;3.60;3.20;;;;;;;30.19;33.04;100532.87;1681025;84;21057;-83
2022/06/25 10:06:33;;;;;;;4.10;2.77;;;;;;;30.09;33.11;100530.80;1669434;84;21061;-83
2022/06/25 10:09:05;;;;;;;7.40;2.90;;;;;;;29.99;33.26;100529.52;1650289;86;21124;-83
2022/06/25 10:11:34;;;;;;;3.27;3.00;;;;;;;29.93;33.32;100523.45;1677688;84;20895;-83
2022/06/25 10:14:01;;;;;;;2.83;2.62;;;;;;;29.88;33.44;100523.91;1664278;84;20970;-83
2022/06/25 10:16:31;;;;;;;5.30;2.65;;;;;;;29.89;33.52;100528.73;1655753;85;21474;-83
2022/06/25 10:19:05;;;;;;;;;;;;;;;29.91;33.65;100521.42;1656571;84;21471;-83
2022/06/25 10:21:32;;;;;;;6.65;2.60;;;;;;;29.90;33.83;100523.26;1662700;84;20438;-83
2022/06/25 10:24:02;;;;;;;4.15;2.70;;;;;;;29.84;33.79;100527.86;1684514;83;20882;-83
2022/06/25 10:26:29;;;;;;;3.80;2.98;;;;;;;29.79;33.70;100526.14;1682113;83;20887;-83
2022/06/25 10:28:55;;;;;;;2.95;2.65;;;;;;;29.80;33.88;100524.31;1686012;83;20926;-83
2022/06/25 10:31:25;;;;;;;3.20;2.67;;;;;;;29.84;33.92;100531.02;1682092;83;21023;-83
2022/06/25 10:34:02;;;;;;;4.55;2.92;;;;;;;29.87;33.96;100520.89;1690855;83;20890;-83
2022/06/25 10:36:49;;;;;;;3.62;2.47;;;;;;;29.97;34.12;100526.16;1693034;83;20918;-83
2022/06/25 10:39:33;;;;;;;4.55;2.58;;;;;;;30.04;33.98;100523.26;1691778;83;20954;-83
2022/06/25 10:45:21;;;;;;;3.62;2.45;;;;;;;30.09;33.99;100531.64;1687507;83;20946;-83
2022/06/25 10:47:54;;;;;;;4.22;2.65;;;;;;;30.06;34.09;100523.95;1675797;83;20970;-83
2022/06/25 10:50:27;;;;;;;3.55;2.42;;;;;;;30.07;34.02;100520.29;1686359;83;21422;-83
2022/06/25 10:53:10;;;;;;;4.25;2.70;;;;;;;30.13;34.16;100524.17;1679202;84;21560;-83
2022/06/25 10:55:52;;;;;;;3.20;2.40;;;;;;;30.13;34.21;100539.69;1691898;83;20898;-83
2022/06/25 10:58:25;;;;;;;2.52;2.33;;;;;;;30.06;33.98;100524.44;1689150;83;21002;-83
2022/06/25 11:01:01;;;;;;;3.60;2.45;;;;;;;30.11;34.16;100527.00;1682652;83;21561;-83
2022/06/25 11:03:38;;;;;;;2.85;2.10;;;;;;;30.19;34.14;100525.70;1679030;83;20974;-83
2022/06/25 11:06:29;;;;;;;6.17;2.62;;;;;;;30.23;34.14;100519.57;1692865;83;20934;-83
2022/06/25 11:09:11;;;;;;;8.95;2.77;;;;;;;30.28;34.20;100526.62;1688369;83;20917;-82
2022/06/25 11:11:40;;;;;;;5.50;2.75;;;;;;;30.32;34.17;100522.65;1690616;83;20961;-82
2022/06/25 11:14:13;;;;;;;2.83;2.47;;;;;;;30.27;34.10;100519.61;1691797;83;21391;-82
2022/06/25 11:16:39;;;;;;;8.38;2.92;;;;;;;30.27;34.15;100527.11;1674720;83;20896;-83
2022/06/25 11:19:07;;;;;;;3.00;2.80;;;;;;;30.29;34.08;100521.63;1710100;82;20972;-83
2022/06/25 11:21:40;;;;;;;5.65;2.72;;;;;;;30.32;34.18;100526.66;1679074;82;21020;-83
2022/06/25 11:24:25;;;;;;;4.80;2.60;;;;;;;30.39;34.07;100521.04;1677921;83;21003;-83
2022/06/25 11:29:47;;;;;;;3.80;2.25;;;;;;;30.56;34.17;100522.01;1719225;82;21415;-83
2022/06/25 11:32:22;;;;;;;3.90;2.08;;;;;;;30.66;33.96;100528.63;1704577;82;20952;-83
2022/06/25 11:34:56;;;;;;;4.03;2.33;;;;;;;30.66;33.92;100532.13;1679301;82;21089;-83
2022/06/25 11:37:24;;;;;;;6.95;2.25;;;;;;;30.69;33.96;100529.11;1665516;85;20933;-83
2022/06/25 11:39:51;;;;;;;4.50;2.47;;;;;;;30.73;33.95;100530.47;1703508;82;20931;-83
2022/06/25 11:42:18;;;;;;;2.95;2.75;;;;;;;30.77;33.80;100530.50;1712931;82;20943;-83
2022/06/25 11:44:50;;;;;;;3.60;2.50;;;;;;;30.84;33.80;100534.22;1670616;84;20971;-82
2022/06/25 11:47:25;;;;;;;5.05;2.70;;;;;;;30.81;33.68;100535.03;1703748;82;21053;-82
2022/06/25 11:49:54;;;;;;;2.85;2.27;;;;;;;30.76;33.79;100534.17;1702216;82;20945;-82
2022/06/25 11:52:23;;;;;;;5.33;2.60;;;;;;;30.77;33.79;100539.01;1642843;84;21071;-82
2022/06/25 11:54:51;;;;;;;3.20;2.60;;;;;;;30.78;33.71;100533.52;1682157;83;21002;-82